Terminal Aerodrome Forecast
Issued by NWS

Home | Current Version | Previous Version | Text Only | Print | Product List | Glossary On
Versions: 1 2 3 4 5 6 7 8 9 10 11 12 13 14 15 16 17 18 19 20
000
FTUS46 KMTR 251700
TAFMRY
TAF
KMRY 251720Z 2518/2618 VRB03KT P6SM SKC
     FM251900 29010KT P6SM SKC
     FM260400 24005KT P6SM SCT005
     FM260700 VRB03KT P6SM OVC004
      TEMPO 2612/2615 3SM BR=

USA.gov is the U.S. government's official web portal to all federal, state and local government web resources and services.